Time;durP1;ratioP1;P1;durP2;ratioP2;P2;SDS_P1;SDS_P2;PMS_P1;PMS_P2;Temp;Humidity;BMP_temperature;BMP_pressure;BME280_temperature;BME280_humidity;BME280_pressure;Samples;Min_cycle;Max_cycle;Signal;HPM_P1;HPM_P2
2021/04/22 00:00:22;;;;;;;1.90;1.10;;;20.60;48.00;;;;;;6317139;28;20462;-63
2021/04/22 00:03:23;;;;;;;2.25;1.20;;;20.60;48.00;;;;;;6317450;28;20482;-64
2021/04/22 00:06:23;;;;;;;1.63;1.08;;;20.70;48.10;;;;;;6316383;28;20428;-64
2021/04/22 00:09:24;;;;;;;1.90;1.00;;;20.60;48.00;;;;;;6316776;28;20032;-63
2021/04/22 00:12:24;;;;;;;2.67;1.35;;;20.70;48.10;;;;;;6316900;28;20047;-64
2021/04/22 00:15:25;;;;;;;1.55;1.13;;;20.60;48.00;;;;;;6316590;28;20069;-64
2021/04/22 00:18:25;;;;;;;1.75;1.23;;;20.70;48.10;;;;;;6316916;28;20438;-63
2021/04/22 00:21:26;;;;;;;1.38;1.00;;;20.70;48.10;;;;;;6316772;28;20038;-64
2021/04/22 00:24:26;;;;;;;2.58;1.20;;;20.60;48.00;;;;;;6316439;28;20024;-64
2021/04/22 00:27:27;;;;;;;0.98;0.88;;;20.60;48.00;;;;;;6316425;28;20047;-64
2021/04/22 00:30:28;;;;;;;1.13;0.90;;;20.60;48.00;;;;;;6314763;28;20391;-63
2021/04/22 00:33:28;;;;;;;1.40;0.90;;;20.60;48.00;;;;;;6316343;28;20106;-64
2021/04/22 00:36:29;;;;;;;1.92;1.10;;;20.60;48.00;;;;;;6316549;28;20046;-63
2021/04/22 00:39:29;;;;;;;1.73;1.15;;;20.60;47.90;;;;;;6315118;28;20716;-63
2021/04/22 00:42:30;;;;;;;2.15;1.20;;;20.60;48.00;;;;;;6315613;28;20028;-64
2021/04/22 00:45:31;;;;;;;1.35;0.90;;;20.70;48.00;;;;;;6316214;28;20024;-63
2021/04/22 00:48:32;;;;;;;2.60;1.15;;;20.60;48.00;;;;;;6315784;28;20055;-63
2021/04/22 00:51:32;;;;;;;1.92;1.00;;;20.60;48.00;;;;;;6315439;28;20079;-64
2021/04/22 00:54:34;;;;;;;1.80;1.25;;;20.70;48.00;;;;;;6315738;28;20070;-63
2021/04/22 00:57:34;;;;;;;1.58;1.17;;;20.70;48.00;;;;;;6315864;28;20443;-63
2021/04/22 01:00:38;;;;;;;1.70;1.10;;;20.70;48.00;;;;;;6315089;28;20024;-64
2021/04/22 01:03:39;;;;;;;1.27;0.77;;;20.60;47.90;;;;;;6315565;28;20024;-63
2021/04/22 01:06:40;;;;;;;2.35;1.17;;;20.70;48.00;;;;;;6315153;28;20127;-63
2021/04/22 01:09:41;;;;;;;1.88;1.05;;;20.60;47.90;;;;;;6315603;28;20024;-63
2021/04/22 01:12:42;;;;;;;1.77;1.00;;;20.60;47.90;;;;;;6315431;28;20024;-64
2021/04/22 01:15:43;;;;;;;2.72;1.35;;;20.60;47.90;;;;;;6315874;28;20220;-63
2021/04/22 01:18:43;;;;;;;1.33;0.95;;;20.60;47.90;;;;;;6315491;28;20063;-63
2021/04/22 01:21:44;;;;;;;1.10;0.80;;;20.60;47.90;;;;;;6315117;28;20237;-63
2021/04/22 01:24:45;;;;;;;1.08;0.90;;;20.60;47.90;;;;;;6315492;28;20028;-63
2021/04/22 01:27:45;;;;;;;2.67;1.35;;;20.60;47.80;;;;;;6315180;28;20540;-64
2021/04/22 01:30:52;;;;;;;3.28;1.27;;;20.60;47.90;;;;;;6316544;28;20028;-63
2021/04/22 01:34:03;;;;;;;4.88;1.30;;;20.60;47.90;;;;;;6320391;28;20378;-63
2021/04/22 01:37:04;;;;;;;3.40;0.90;;;20.60;47.80;;;;;;6320181;28;20024;-64
2021/04/22 01:40:07;;;;;;;2.40;1.10;;;20.60;47.80;;;;;;6321048;28;20103;-63
2021/04/22 01:43:08;;;;;;;1.27;0.88;;;20.60;47.90;;;;;;6320392;28;20374;-63
2021/04/22 01:46:08;;;;;;;2.60;1.13;;;20.70;47.90;;;;;;6320909;28;20024;-64
2021/04/22 01:49:09;;;;;;;1.98;1.00;;;20.60;47.80;;;;;;6319534;28;20135;-63
2021/04/22 01:52:09;;;;;;;1.08;0.82;;;20.70;47.90;;;;;;6318798;28;20036;-63
2021/04/22 01:55:13;;;;;;;1.83;1.20;;;20.60;47.80;;;;;;6319723;28;20100;-63
2021/04/22 01:58:22;;;;;;;1.25;1.00;;;20.60;47.80;;;;;;6320315;28;20028;-63
2021/04/22 02:01:22;;;;;;;1.60;1.00;;;20.60;47.80;;;;;;6319967;28;20304;-63
2021/04/22 02:04:23;;;;;;;1.52;1.02;;;20.60;47.80;;;;;;6319782;28;20035;-63
2021/04/22 02:07:23;;;;;;;1.20;0.90;;;20.70;47.90;;;;;;6319710;28;20487;-63
2021/04/22 02:10:24;;;;;;;1.58;0.90;;;20.60;47.80;;;;;;6319924;28;20106;-63
2021/04/22 02:13:26;;;;;;;1.65;1.10;;;20.60;47.80;;;;;;6319180;28;20571;-63
2021/04/22 02:16:27;;;;;;;1.95;1.10;;;20.60;47.70;;;;;;6319760;28;20030;-63
2021/04/22 02:19:27;;;;;;;2.05;0.95;;;20.60;47.70;;;;;;6319226;28;20032;-63
2021/04/22 02:22:28;;;;;;;1.60;0.90;;;20.60;47.70;;;;;;6319238;28;20055;-64
2021/04/22 02:25:29;;;;;;;3.03;1.05;;;20.60;47.70;;;;;;6319408;28;20347;-63
2021/04/22 02:28:30;;;;;;;2.30;1.10;;;20.60;47.70;;;;;;6319031;28;20445;-63
2021/04/22 02:31:30;;;;;;;1.55;1.00;;;20.60;47.70;;;;;;6319346;28;20028;-63
2021/04/22 02:34:31;;;;;;;1.45;0.90;;;20.60;47.70;;;;;;6319171;28;20518;-63
2021/04/22 02:37:32;;;;;;;1.88;1.10;;;20.60;47.70;;;;;;6319156;28;20073;-63
2021/04/22 02:40:35;;;;;;;2.03;1.10;;;20.60;47.70;;;;;;6319047;28;20024;-63
2021/04/22 02:43:35;;;;;;;2.78;1.50;;;20.60;47.70;;;;;;6319022;28;20093;-64
2021/04/22 02:46:36;;;;;;;2.00;0.93;;;20.60;47.70;;;;;;6319332;28;20374;-64
2021/04/22 02:49:36;;;;;;;1.77;1.10;;;20.60;47.70;;;;;;6317874;28;20113;-63
2021/04/22 02:52:37;;;;;;;1.75;1.23;;;20.60;48.40;;;;;;6318496;28;20040;-63
2021/04/22 02:55:38;;;;;;;1.70;1.00;;;20.60;47.70;;;;;;6318846;28;20052;-64
2021/04/22 02:58:39;;;;;;;2.17;1.02;;;20.60;47.70;;;;;;6318474;28;20042;-64
2021/04/22 03:01:39;;;;;;;1.38;1.00;;;20.60;47.70;;;;;;6318501;28;20036;-63
2021/04/22 03:04:40;;;;;;;2.05;1.20;;;20.60;47.70;;;;;;6318364;28;20030;-64
2021/04/22 03:07:41;;;;;;;2.28;1.08;;;20.60;47.70;;;;;;6318278;28;20126;-63
2021/04/22 03:10:42;;;;;;;1.63;0.95;;;20.60;47.70;;;;;;6318332;28;20032;-63
2021/04/22 03:13:43;;;;;;;2.25;1.13;;;20.60;47.70;;;;;;6318682;28;20428;-63
2021/04/22 03:16:43;;;;;;;1.77;1.10;;;20.60;47.70;;;;;;6318215;28;20028;-64
2021/04/22 03:19:44;;;;;;;2.97;1.23;;;20.60;47.70;;;;;;6318122;28;20032;-63
2021/04/22 03:22:45;;;;;;;2.78;1.33;;;20.60;47.70;;;;;;6318266;28;20444;-63
2021/04/22 03:25:45;;;;;;;1.13;1.00;;;20.60;47.70;;;;;;6317324;28;20032;-63
2021/04/22 03:28:47;;;;;;;1.77;0.98;;;20.60;47.70;;;;;;6317634;28;20338;-63
2021/04/22 03:31:47;;;;;;;2.63;1.10;;;20.60;47.70;;;;;;6317794;28;20482;-63
2021/04/22 03:34:48;;;;;;;1.73;0.90;;;20.60;47.70;;;;;;6317424;28;20029;-63
2021/04/22 03:37:49;;;;;;;1.70;1.00;;;20.60;47.70;;;;;;6318110;28;20031;-63
2021/04/22 03:40:50;;;;;;;2.35;1.05;;;20.60;47.70;;;;;;6316219;28;20020;-63
2021/04/22 03:43:51;;;;;;;2.60;1.27;;;20.60;47.70;;;;;;6317007;28;20081;-64
2021/04/22 03:46:51;;;;;;;2.00;1.10;;;20.60;47.70;;;;;;6317617;28;20052;-63
2021/04/22 03:49:52;;;;;;;1.80;1.15;;;20.60;47.70;;;;;;6316670;28;20522;-63
2021/04/22 03:52:53;;;;;;;2.35;1.60;;;20.60;47.60;;;;;;6317007;28;20528;-63
2021/04/22 03:55:53;;;;;;;2.58;1.30;;;20.60;47.60;;;;;;6317267;28;20070;-63
2021/04/22 03:58:54;;;;;;;1.85;1.33;;;20.60;47.60;;;;;;6317721;28;20028;-63
2021/04/22 04:01:54;;;;;;;2.15;1.08;;;20.60;47.60;;;;;;6316876;28;20032;-63
2021/04/22 04:04:55;;;;;;;2.97;1.08;;;20.60;47.60;;;;;;6317095;28;20036;-64
2021/04/22 04:07:56;;;;;;;1.52;1.00;;;20.60;47.60;;;;;;6316889;28;20170;-63
2021/04/22 04:10:56;;;;;;;4.15;1.33;;;20.60;47.70;;;;;;6315655;28;20479;-63
2021/04/22 04:13:57;;;;;;;1.88;1.15;;;20.60;47.60;;;;;;6317031;28;20095;-64
2021/04/22 04:16:57;;;;;;;2.45;1.20;;;20.60;47.60;;;;;;6316510;28;20030;-64
2021/04/22 04:19:58;;;;;;;1.48;1.02;;;20.60;47.70;;;;;;6316134;28;20060;-63
2021/04/22 04:22:59;;;;;;;2.15;1.13;;;20.60;47.60;;;;;;6302694;28;20089;-63
2021/04/22 04:25:59;;;;;;;2.10;1.30;;;20.60;47.60;;;;;;6296905;28;20471;-63
2021/04/22 04:29:00;;;;;;;2.47;1.30;;;20.60;47.60;;;;;;6294275;28;20012;-64
2021/04/22 04:32:01;;;;;;;2.55;1.20;;;20.60;47.60;;;;;;6315174;28;20032;-63
2021/04/22 04:35:02;;;;;;;1.75;1.08;;;20.60;47.40;;;;;;6314636;28;20028;-63
2021/04/22 04:38:04;;;;;;;2.20;1.40;;;20.60;47.60;;;;;;6313467;28;20016;-64
2021/04/22 04:41:04;;;;;;;2.22;1.33;;;20.60;47.50;;;;;;6314529;28;20016;-64
2021/04/22 04:44:05;;;;;;;1.70;1.00;;;20.60;47.60;;;;;;6314533;28;20035;-64
2021/04/22 04:47:05;;;;;;;2.45;1.40;;;20.60;47.50;;;;;;6315170;28;20069;-63
2021/04/22 04:50:07;;;;;;;3.25;1.33;;;20.60;47.50;;;;;;6313544;28;20059;-63
2021/04/22 04:53:08;;;;;;;2.15;1.00;;;20.60;47.50;;;;;;6307852;28;20063;-63
2021/04/22 04:56:08;;;;;;;1.83;1.23;;;20.60;47.50;;;;;;6297613;28;20025;-63
2021/04/22 04:59:09;;;;;;;2.85;1.20;;;20.60;47.50;;;;;;6298905;28;20382;-63
2021/04/22 05:02:09;;;;;;;2.20;1.40;;;20.60;47.50;;;;;;6299464;28;20031;-63
2021/04/22 05:05:10;;;;;;;3.50;1.05;;;20.60;47.60;;;;;;6298781;28;20032;-63
2021/04/22 05:08:11;;;;;;;2.58;1.35;;;20.60;47.50;;;;;;6301485;28;20017;-63
2021/04/22 05:11:11;;;;;;;4.00;1.50;;;20.60;47.60;;;;;;6300682;28;20367;-63
2021/04/22 05:14:12;;;;;;;2.28;1.10;;;20.60;47.60;;;;;;6297395;28;20020;-63
2021/04/22 05:17:12;;;;;;;5.15;1.60;;;20.60;47.50;;;;;;6297509;28;20110;-63
2021/04/22 05:20:14;;;;;;;3.03;1.20;;;20.60;47.60;;;;;;6297938;28;20017;-64
2021/04/22 05:23:14;;;;;;;3.05;1.17;;;20.70;47.60;;;;;;6311382;28;20372;-63
2021/04/22 05:26:19;;;;;;;2.08;1.13;;;20.70;47.60;;;;;;6313109;28;20032;-63
2021/04/22 05:29:19;;;;;;;3.50;1.38;;;20.60;47.50;;;;;;6311022;28;20123;-63
2021/04/22 05:32:20;;;;;;;3.17;1.45;;;20.70;47.60;;;;;;6312967;28;20085;-63
2021/04/22 05:35:20;;;;;;;3.75;1.55;;;20.70;47.70;;;;;;6313585;28;20440;-63
2021/04/22 05:38:21;;;;;;;2.30;1.38;;;20.60;47.60;;;;;;6313145;28;20028;-63
2021/04/22 05:41:21;;;;;;;2.88;1.13;;;20.60;47.50;;;;;;6313198;28;20024;-63
2021/04/22 05:44:22;;;;;;;2.47;1.40;;;20.70;47.60;;;;;;6313024;28;20063;-63
2021/04/22 05:47:23;;;;;;;4.35;1.50;;;20.70;47.70;;;;;;6312689;28;20095;-63
2021/04/22 05:50:24;;;;;;;3.00;1.20;;;20.60;47.30;;;;;;6312906;28;20140;-63
2021/04/22 05:53:25;;;;;;;4.25;1.20;;;20.70;47.50;;;;;;6311246;28;20032;-63
2021/04/22 05:56:25;;;;;;;2.92;1.10;;;20.60;47.40;;;;;;6313351;28;20476;-63
2021/04/22 05:59:26;;;;;;;7.63;1.55;;;20.60;47.40;;;;;;6311382;28;20247;-64
2021/04/22 06:02:27;;;;;;;2.65;1.38;;;20.60;47.40;;;;;;6309198;28;20077;-63
2021/04/22 06:05:27;;;;;;;5.53;1.50;;;20.60;47.40;;;;;;6315233;28;20026;-63
2021/04/22 06:08:28;;;;;;;2.15;1.20;;;20.60;47.40;;;;;;6305883;28;20021;-64
2021/04/22 06:11:28;;;;;;;3.17;1.63;;;20.60;47.40;;;;;;6311632;28;20044;-63
2021/04/22 06:14:29;;;;;;;3.67;1.60;;;20.60;47.40;;;;;;6315843;28;20032;-63
2021/04/22 06:17:30;;;;;;;4.32;1.67;;;20.70;47.50;;;;;;6313678;28;20032;-63
2021/04/22 06:20:30;;;;;;;2.70;1.25;;;20.70;47.50;;;;;;6320426;28;20020;-63
2021/04/22 06:23:31;;;;;;;2.72;1.30;;;20.60;47.40;;;;;;6321056;28;20424;-64
2021/04/22 06:26:32;;;;;;;3.05;1.70;;;20.60;47.40;;;;;;6320395;28;20024;-63
2021/04/22 06:29:32;;;;;;;3.35;1.50;;;20.60;47.40;;;;;;6320847;28;20233;-63
2021/04/22 06:32:33;;;;;;;2.25;1.23;;;20.60;47.40;;;;;;6319735;28;20032;-64
2021/04/22 06:35:34;;;;;;;3.47;1.50;;;20.60;47.40;;;;;;6320138;28;20482;-63
2021/04/22 06:38:35;;;;;;;4.07;1.60;;;20.60;47.40;;;;;;6320090;28;20027;-63
2021/04/22 06:41:35;;;;;;;5.70;1.92;;;20.60;47.20;;;;;;6320828;28;20027;-63
2021/04/22 06:44:36;;;;;;;10.10;3.05;;;20.60;46.60;;;;;;6299682;28;20073;-64
2021/04/22 06:47:38;;;;;;;12.68;2.90;;;20.60;42.20;;;;;;6299973;28;20036;-63
2021/04/22 06:50:38;;;;;;;8.45;2.60;;;20.60;43.00;;;;;;6319387;28;20040;-63
2021/04/22 06:53:39;;;;;;;7.50;2.30;;;20.60;44.30;;;;;;6320239;28;20035;-63
2021/04/22 06:56:39;;;;;;;6.88;2.08;;;20.60;44.80;;;;;;6320327;28;20032;-63
2021/04/22 06:59:41;;;;;;;5.97;2.15;;;20.60;45.10;;;;;;6320166;28;20111;-63
2021/04/22 07:02:42;;;;;;;3.80;1.73;;;20.70;45.40;;;;;;6319642;28;20040;-63
2021/04/22 07:05:43;;;;;;;6.78;2.55;;;20.70;45.60;;;;;;6320198;28;20052;-64
2021/04/22 07:08:43;;;;;;;7.68;2.25;;;20.60;45.70;;;;;;6319545;28;20047;-63
2021/04/22 07:11:44;;;;;;;9.73;2.55;;;20.60;45.80;;;;;;6306340;28;20041;-64
2021/04/22 07:14:45;;;;;;;7.20;2.20;;;20.70;46.00;;;;;;6313846;28;20042;-63
2021/04/22 07:17:46;;;;;;;5.22;1.67;;;20.60;46.00;;;;;;6315328;28;20122;-63
2021/04/22 07:20:46;;;;;;;4.97;2.05;;;20.60;46.10;;;;;;6319554;28;20048;-63
2021/04/22 07:23:47;;;;;;;5.43;2.00;;;20.60;46.20;;;;;;6319236;28;20031;-63
2021/04/22 07:26:47;;;;;;;4.40;2.00;;;20.60;46.20;;;;;;6319418;28;20720;-63
2021/04/22 07:29:48;;;;;;;4.80;1.77;;;20.70;46.40;;;;;;6318405;28;20028;-64
2021/04/22 07:32:48;;;;;;;7.85;2.60;;;20.70;46.40;;;;;;6318856;28;20047;-63
2021/04/22 07:35:49;;;;;;;6.22;2.20;;;20.60;46.40;;;;;;6319612;28;20028;-64
2021/04/22 07:38:49;;;;;;;4.88;2.00;;;20.70;46.50;;;;;;6318413;28;20411;-63
2021/04/22 07:41:50;;;;;;;7.80;2.00;;;20.70;46.50;;;;;;6318907;28;20039;-63
2021/04/22 07:44:50;;;;;;;5.38;2.17;;;20.60;46.40;;;;;;6318632;28;20103;-63
2021/04/22 07:47:51;;;;;;;4.78;2.05;;;20.70;46.50;;;;;;6309797;28;20021;-63
2021/04/22 07:50:51;;;;;;;4.72;1.98;;;20.60;46.50;;;;;;6316063;28;20028;-64
2021/04/22 07:53:52;;;;;;;6.78;1.98;;;20.60;46.50;;;;;;6318487;28;20035;-63
2021/04/22 07:56:53;;;;;;;5.05;2.00;;;20.70;46.60;;;;;;6318599;28;20039;-63
2021/04/22 07:59:54;;;;;;;6.43;2.15;;;20.60;46.50;;;;;;6318729;28;20046;-63
2021/04/22 08:02:55;;;;;;;5.60;2.00;;;20.60;46.50;;;;;;6318594;28;20020;-63
2021/04/22 08:05:56;;;;;;;4.40;1.70;;;20.60;46.50;;;;;;6318647;28;20032;-64
2021/04/22 08:08:56;;;;;;;4.63;1.92;;;20.70;46.70;;;;;;6318007;28;20035;-63
2021/04/22 08:11:57;;;;;;;4.75;1.70;;;20.70;46.70;;;;;;6317568;28;20040;-63
2021/04/22 08:14:59;;;;;;;6.50;2.15;;;20.70;46.70;;;;;;6317755;28;20107;-63
2021/04/22 08:18:01;;;;;;;3.33;1.85;;;20.70;46.70;;;;;;6318309;28;20111;-63
2021/04/22 08:21:02;;;;;;;4.18;1.95;;;20.60;47.30;;;;;;6317976;28;20042;-63
2021/04/22 08:24:03;;;;;;;3.92;1.65;;;20.60;46.60;;;;;;6317902;28;20031;-64
2021/04/22 08:27:04;;;;;;;4.57;1.92;;;20.60;46.60;;;;;;6317795;28;20031;-64
2021/04/22 08:30:06;;;;;;;4.63;1.88;;;20.60;46.70;;;;;;6317337;28;20054;-63
2021/04/22 08:33:07;;;;;;;4.80;1.98;;;20.60;46.70;;;;;;6317357;28;20371;-63
2021/04/22 08:36:08;;;;;;;4.15;1.80;;;20.70;46.80;;;;;;6317678;28;20103;-64
2021/04/22 08:39:10;;;;;;;3.60;1.85;;;20.60;46.70;;;;;;6317279;28;20382;-62
2021/04/22 08:42:11;;;;;;;2.92;1.65;;;20.60;46.60;;;;;;6317516;28;20028;-62
2021/04/22 08:45:15;;;;;;;7.00;1.92;;;20.70;46.80;;;;;;6317162;28;20108;-62
2021/04/22 08:48:16;;;;;;;3.85;2.13;;;20.70;46.80;;;;;;6317410;28;20043;-63
2021/04/22 08:51:16;;;;;;;3.53;1.75;;;20.70;46.80;;;;;;6317018;28;20113;-62
2021/04/22 08:54:17;;;;;;;5.30;1.83;;;20.70;46.90;;;;;;6316597;28;20032;-62
2021/04/22 08:57:20;;;;;;;3.45;1.50;;;20.70;46.90;;;;;;6317494;28;20031;-63
2021/04/22 09:00:24;;;;;;;2.92;1.73;;;20.70;46.90;;;;;;6317032;28;20048;-63
2021/04/22 09:03:25;;;;;;;4.15;1.98;;;20.70;46.90;;;;;;6316653;28;20032;-62
2021/04/22 09:06:25;;;;;;;5.65;1.70;;;20.60;46.80;;;;;;6317447;28;20028;-63
2021/04/22 09:09:26;;;;;;;4.47;1.75;;;20.60;46.90;;;;;;6316915;28;20413;-62
2021/04/22 09:12:27;;;;;;;3.42;1.70;;;20.70;46.90;;;;;;6304883;28;20401;-63
2021/04/22 09:15:29;;;;;;;3.28;1.70;;;20.70;46.90;;;;;;6316895;28;20028;-63
2021/04/22 09:18:37;;;;;;;4.63;1.60;;;20.60;46.80;;;;;;6316699;28;20024;-62
2021/04/22 09:21:41;;;;;;;4.30;1.73;;;20.60;46.80;;;;;;6316820;28;20378;-62
2021/04/22 09:24:42;;;;;;;4.15;1.70;;;20.70;46.90;;;;;;6316219;28;20020;-62
2021/04/22 09:27:43;;;;;;;5.68;2.00;;;20.70;46.90;;;;;;6316848;28;20491;-62
2021/04/22 09:30:45;;;;;;;3.63;1.75;;;20.70;46.90;;;;;;6316882;28;20020;-62
2021/04/22 09:33:46;;;;;;;2.17;1.30;;;20.60;46.80;;;;;;6315896;28;20028;-62
2021/04/22 09:36:52;;;;;;;3.30;1.75;;;20.70;46.90;;;;;;6316962;28;20406;-62
2021/04/22 09:39:52;;;;;;;3.97;1.75;;;20.70;46.90;;;;;;6315729;28;20119;-62
2021/04/22 09:42:55;;;;;;;3.15;1.63;;;20.70;46.90;;;;;;6316696;28;20020;-62
2021/04/22 09:45:56;;;;;;;4.03;1.83;;;20.70;46.80;;;;;;6316339;28;20402;-63
2021/04/22 09:48:58;;;;;;;2.72;1.50;;;20.70;46.90;;;;;;6316076;28;20048;-64
2021/04/22 09:52:08;;;;;;;5.40;1.75;;;20.60;46.80;;;;;;6318174;28;20088;-63
2021/04/22 09:55:13;;;;;;;8.23;2.00;;;20.60;46.80;;;;;;6322421;28;20039;-64
2021/04/22 09:58:24;;;;;;;8.00;1.90;;;20.70;45.50;;;;;;6320856;28;20035;-62
2021/04/22 10:01:27;;;;;;;6.05;2.00;;;20.60;41.60;;;;;;6321570;28;20030;-62
2021/04/22 10:04:57;;;;;;;6.95;1.60;;;20.60;45.30;;;;;;6321326;28;20625;-62
2021/04/22 10:08:06;;;;;;;6.50;2.00;;;20.60;45.20;;;;;;6312308;28;20040;-63
2021/04/22 10:11:07;;;;;;;3.22;1.50;;;20.60;45.50;;;;;;6320329;28;20032;-63
2021/04/22 10:14:08;;;;;;;5.07;1.85;;;20.60;45.60;;;;;;6320744;28;20028;-62
2021/04/22 10:17:14;;;;;;;2.63;1.35;;;20.60;45.80;;;;;;6321343;28;20027;-62
2021/04/22 10:20:15;;;;;;;5.35;1.73;;;20.60;45.80;;;;;;6321371;28;20031;-62
2021/04/22 10:23:16;;;;;;;4.30;1.70;;;20.60;45.90;;;;;;6320145;28;20032;-62
2021/04/22 10:26:19;;;;;;;2.65;1.42;;;20.70;46.00;;;;;;6320768;28;20439;-63
2021/04/22 10:29:19;;;;;;;3.90;1.90;;;20.70;46.00;;;;;;6321040;28;20505;-63
2021/04/22 10:32:21;;;;;;;5.53;1.92;;;20.60;46.00;;;;;;6319704;28;20040;-62
2021/04/22 10:35:26;;;;;;;4.22;1.55;;;20.70;46.10;;;;;;6321388;28;20028;-62
2021/04/22 10:38:26;;;;;;;4.03;1.48;;;20.70;46.10;;;;;;6320154;28;20124;-62
2021/04/22 10:41:33;;;;;;;4.03;1.63;;;20.60;46.00;;;;;;6320307;28;20028;-62
2021/04/22 10:44:36;;;;;;;5.00;1.60;;;20.70;46.10;;;;;;6320081;28;20020;-62
2021/04/22 10:47:37;;;;;;;2.90;1.40;;;20.70;46.10;;;;;;6320406;28;20455;-64
2021/04/22 10:50:43;;;;;;;3.35;1.48;;;20.70;46.10;;;;;;6320162;28;20056;-63
2021/04/22 10:53:44;;;;;;;3.22;1.77;;;20.70;46.10;;;;;;6319833;28;20042;-62
2021/04/22 10:56:46;;;;;;;3.00;1.48;;;20.70;46.10;;;;;;6318665;28;20841;-62
2021/04/22 10:59:59;;;;;;;2.67;1.50;;;20.70;46.10;;;;;;6320679;28;20036;-62
2021/04/22 11:02:59;;;;;;;5.28;1.85;;;20.70;46.10;;;;;;6318357;28;20035;-63
2021/04/22 11:06:20;;;;;;;2.60;1.50;;;20.70;46.10;;;;;;6321130;28;20474;-62
2021/04/22 11:09:21;;;;;;;2.50;1.30;;;20.70;46.10;;;;;;6319689;28;20047;-62
2021/04/22 11:12:27;;;;;;;3.65;1.65;;;20.70;46.20;;;;;;6319035;28;20033;-62
2021/04/22 11:15:28;;;;;;;5.45;1.70;;;20.70;46.20;;;;;;6319776;28;20128;-63
2021/04/22 11:18:39;;;;;;;2.92;1.52;;;20.70;46.20;;;;;;6319990;28;20470;-63
2021/04/22 11:21:49;;;;;;;2.63;1.45;;;20.70;46.20;;;;;;6320167;28;20032;-63
2021/04/22 11:24:59;;;;;;;2.35;1.40;;;20.70;46.30;;;;;;6311595;28;20026;-62
2021/04/22 11:28:04;;;;;;;2.47;1.58;;;20.70;46.20;;;;;;6319192;28;20020;-63
2021/04/22 11:31:11;;;;;;;4.63;1.90;;;20.70;46.20;;;;;;6319348;28;20544;-63
2021/04/22 11:34:12;;;;;;;3.25;1.50;;;20.70;46.20;;;;;;6319173;28;20028;-62
2021/04/22 11:37:15;;;;;;;3.05;1.60;;;20.60;46.20;;;;;;6319669;28;20024;-62
2021/04/22 11:40:46;;;;;;;4.18;1.45;;;20.70;46.30;;;;;;6319306;28;20101;-62
2021/04/22 11:43:47;;;;;;;2.55;1.30;;;20.70;46.30;;;;;;6317559;28;20064;-62
2021/04/22 11:46:48;;;;;;;3.47;1.63;;;20.70;46.30;;;;;;6318099;28;20500;-62
2021/04/22 11:50:01;;;;;;;2.80;1.45;;;20.60;46.20;;;;;;6319175;28;20036;-62
2021/04/22 11:53:04;;;;;;;3.22;1.50;;;20.70;46.30;;;;;;6318276;28;20032;-62
2021/04/22 11:56:06;;;;;;;2.70;1.40;;;20.60;46.20;;;;;;6319201;28;20035;-62
2021/04/22 11:59:15;;;;;;;2.83;1.40;;;20.60;46.20;;;;;;6319020;28;20031;-62
2021/04/22 12:02:16;;;;;;;3.20;1.23;;;20.60;46.20;;;;;;6318335;28;20127;-62
2021/04/22 12:05:22;;;;;;;3.78;1.60;;;20.70;46.30;;;;;;6318337;28;20383;-63
2021/04/22 12:08:31;;;;;;;3.33;1.45;;;20.60;46.20;;;;;;6318774;28;20027;-62
2021/04/22 12:11:37;;;;;;;2.72;1.35;;;20.70;46.30;;;;;;6318412;28;20040;-63
2021/04/22 12:14:38;;;;;;;2.22;1.30;;;20.70;46.40;;;;;;6317614;28;20022;-62
2021/04/22 12:17:39;;;;;;;2.30;1.35;;;20.70;46.40;;;;;;6318152;28;20115;-62
2021/04/22 12:20:40;;;;;;;2.35;1.20;;;20.60;46.20;;;;;;6317858;28;20020;-62
2021/04/22 12:23:43;;;;;;;2.67;1.17;;;20.70;46.30;;;;;;6318441;28;20077;-62
2021/04/22 12:26:44;;;;;;;2.97;1.30;;;20.70;46.30;;;;;;6318677;28;20063;-63
2021/04/22 12:29:44;;;;;;;2.55;1.25;;;20.60;46.20;;;;;;6318018;28;20032;-62
2021/04/22 12:33:15;;;;;;;1.73;1.23;;;20.60;47.00;;;;;;6317701;28;20055;-63
2021/04/22 12:36:15;;;;;;;4.00;1.58;;;20.60;46.30;;;;;;6327355;28;20088;-62
2021/04/22 12:39:33;;;;;;;2.20;1.40;;;20.60;46.30;;;;;;6331982;28;20032;-62
2021/04/22 12:42:34;;;;;;;2.25;1.33;;;20.60;46.30;;;;;;6308559;28;20024;-63
2021/04/22 12:45:37;;;;;;;1.20;1.00;;;20.70;46.40;;;;;;6315350;28;20028;-62
2021/04/22 12:48:39;;;;;;;2.83;1.25;;;20.70;46.40;;;;;;6317283;28;20407;-62
2021/04/22 12:51:40;;;;;;;1.60;1.13;;;20.70;46.40;;;;;;6316017;28;20432;-63
2021/04/22 12:54:41;;;;;;;3.58;1.23;;;20.60;46.30;;;;;;6316622;28;20029;-63
2021/04/22 12:57:42;;;;;;;1.88;1.10;;;20.70;46.30;;;;;;6314655;28;20510;-62
2021/04/22 13:00:45;;;;;;;2.08;1.20;;;20.70;46.40;;;;;;6319101;28;20016;-63
2021/04/22 13:03:51;;;;;;;4.50;1.60;;;20.70;46.40;;;;;;6315459;28;20064;-62
2021/04/22 13:06:51;;;;;;;2.40;1.35;;;20.60;46.30;;;;;;6306110;28;20437;-62
2021/04/22 13:09:52;;;;;;;4.07;1.25;;;20.60;46.40;;;;;;6300395;28;20032;-62
2021/04/22 13:12:53;;;;;;;2.30;1.38;;;20.70;46.40;;;;;;6307451;28;20406;-62
2021/04/22 13:16:03;;;;;;;2.20;1.40;;;20.70;46.50;;;;;;6305456;28;20028;-62
2021/04/22 13:19:08;;;;;;;3.17;1.27;;;20.70;46.50;;;;;;6306866;28;20065;-62
2021/04/22 13:22:13;;;;;;;3.30;1.38;;;20.70;46.50;;;;;;6300099;28;20021;-63
2021/04/22 13:25:15;;;;;;;2.85;1.30;;;20.70;46.50;;;;;;6308974;28;20060;-62
2021/04/22 13:28:18;;;;;;;4.97;1.05;;;20.70;46.50;;;;;;6304172;28;20080;-62
2021/04/22 13:31:24;;;;;;;13.50;1.67;;;20.70;46.50;;;;;;6303016;28;20039;-62
2021/04/22 13:34:25;;;;;;;4.97;1.30;;;20.70;45.60;;;;;;6297477;28;20020;-62
2021/04/22 13:37:27;;;;;;;3.28;1.20;;;20.70;46.50;;;;;;6304801;28;20408;-62
2021/04/22 13:40:28;;;;;;;4.13;1.35;;;20.70;46.40;;;;;;6301200;28;20088;-63
2021/04/22 13:43:29;;;;;;;5.45;1.17;;;20.70;46.30;;;;;;6307276;28;20028;-62
2021/04/22 13:46:30;;;;;;;4.70;1.25;;;20.70;46.30;;;;;;6310163;28;20397;-62
2021/04/22 13:49:34;;;;;;;7.65;1.40;;;20.70;46.30;;;;;;6313189;28;20074;-63
2021/04/22 13:52:36;;;;;;;5.05;1.40;;;20.70;46.30;;;;;;6309604;28;20127;-63
2021/04/22 13:55:51;;;;;;;4.82;1.27;;;20.70;46.30;;;;;;6301570;28;20123;-63
2021/04/22 13:58:52;;;;;;;4.82;1.77;;;20.70;46.40;;;;;;6314090;28;20055;-62
2021/04/22 14:02:00;;;;;;;3.55;1.25;;;20.70;46.40;;;;;;6315539;28;20030;-63
2021/04/22 14:05:03;;;;;;;2.72;1.13;;;20.70;46.40;;;;;;6304923;28;20024;-62
2021/04/22 14:08:04;;;;;;;4.97;1.60;;;20.70;46.50;;;;;;6315270;28;20099;-62
2021/04/22 14:11:18;;;;;;;6.35;1.38;;;20.70;46.50;;;;;;6311993;28;20070;-63
2021/04/22 14:14:25;;;;;;;3.83;1.20;;;20.70;46.50;;;;;;6315031;28;20474;-62
2021/04/22 14:17:26;;;;;;;6.70;1.70;;;20.60;46.60;;;;;;6315013;28;20036;-62
2021/04/22 14:20:26;;;;;;;6.47;1.83;;;20.50;44.60;;;;;;6314906;28;20031;-62
2021/04/22 14:23:27;;;;;;;5.85;1.77;;;20.60;43.80;;;;;;6313755;28;20063;-62
2021/04/22 14:26:28;;;;;;;9.43;2.15;;;20.60;43.00;;;;;;6313178;28;20224;-63
2021/04/22 14:29:28;;;;;;;8.93;1.88;;;20.60;43.40;;;;;;6315078;28;20024;-62
2021/04/22 14:32:29;;;;;;;5.38;1.60;;;20.60;44.00;;;;;;6315155;28;20036;-62
2021/04/22 14:35:29;;;;;;;9.85;1.83;;;20.60;44.10;;;;;;6313333;28;20457;-62
2021/04/22 14:38:30;;;;;;;4.65;1.70;;;20.70;44.40;;;;;;6317372;28;20031;-63
2021/04/22 14:41:31;;;;;;;7.70;2.13;;;20.70;44.60;;;;;;6319769;28;20024;-62
2021/04/22 14:44:32;;;;;;;7.13;1.60;;;20.60;44.60;;;;;;6318945;28;20062;-62
2021/04/22 14:47:33;;;;;;;5.55;1.73;;;20.60;45.00;;;;;;6317795;28;20036;-62
2021/04/22 14:50:34;;;;;;;7.32;2.15;;;20.70;45.10;;;;;;6318919;28;20104;-62
2021/04/22 14:53:35;;;;;;;6.90;2.33;;;20.70;45.20;;;;;;6319156;28;20509;-62
2021/04/22 14:56:36;;;;;;;4.50;1.77;;;20.70;45.40;;;;;;6318961;28;20036;-62
2021/04/22 14:59:36;;;;;;;7.82;2.03;;;20.70;45.50;;;;;;6318380;28;20016;-62
2021/04/22 15:02:37;;;;;;;8.95;1.80;;;20.70;45.60;;;;;;6318579;28;20101;-62
2021/04/22 15:05:37;;;;;;;12.27;1.70;;;20.70;45.60;;;;;;6318623;28;20020;-62
2021/04/22 15:08:38;;;;;;;17.90;2.28;;;20.70;45.70;;;;;;6319257;28;20031;-62
2021/04/22 15:11:38;;;;;;;8.13;2.00;;;20.60;42.50;;;;;;6318668;28;20115;-62
2021/04/22 15:14:39;;;;;;;11.80;3.08;;;20.70;39.70;;;;;;6317171;28;20100;-62
2021/04/22 15:17:39;;;;;;;14.32;3.03;;;20.70;39.40;;;;;;6318936;28;20024;-63
2021/04/22 15:20:40;;;;;;;11.85;2.40;;;20.70;37.30;;;;;;6318386;28;20118;-62
2021/04/22 15:23:42;;;;;;;12.85;3.17;;;20.60;37.90;;;;;;6318736;28;20016;-62
2021/04/22 15:26:43;;;;;;;8.60;2.80;;;20.60;38.00;;;;;;6316991;28;20431;-62
2021/04/22 15:29:47;;;;;;;11.15;2.67;;;20.60;38.20;;;;;;6318377;28;20387;-62
2021/04/22 15:32:48;;;;;;;8.00;2.53;;;20.60;36.80;;;;;;6318502;28;20064;-62
2021/04/22 15:35:49;;;;;;;11.60;2.78;;;20.50;36.80;;;;;;6316254;28;20395;-62
2021/04/22 15:38:49;;;;;;;17.33;3.35;;;20.60;37.70;;;;;;6317217;28;20028;-62
2021/04/22 15:41:52;;;;;;;11.32;3.13;;;20.50;37.90;;;;;;6317765;28;20031;-62
2021/04/22 15:44:52;;;;;;;9.07;2.78;;;20.50;34.70;;;;;;6316324;28;20339;-62